Aérodrome :
LOGIN :

S'inscrire | Disclaimer

   EN    FR    IT 

 










Légende :    VFR   VFR Marginal   IFR   IFR Intensif   IFR Très Intensif
Visi : 
Plafond : 
>= 8 km
>= 3000ft
5 à 8 km
1000 à 3000 ft
1500m à 5 km
500 à 1000 ft
800 à 1500m
200 à 500 ft
< 800m
< 200 ft
Symboles :   Orages  Brouillard  Fortes neiges  Fortes précipitations  Vent > 20 kt
SIGMETs :   Divers  Orages  Givrage  Turbulence  Onde Orograph.  Cendres Volcan.







- Altitude de l'aérodrome : 423 ft
- Code IATA : PIS
- Voir les cartes d'approche


LFBI - Poitiers

DERNIER METAR :
  • 171500Z AUTO 24010KT 9999 BKN029 OVC034 23/17 Q1019 NOSIG

METARs EXPIRÉS :
  • 171430Z AUTO 23010KT 9999 OVC029 23/17 Q1019 NOSIG
  • 171400Z AUTO 23009KT 200V260 9999 SCT026 OVC032 23/17 Q1019 NOSIG
  • 171330Z AUTO 23011KT 9999 OVC025 23/17 Q1020 NOSIG
  • 171300Z AUTO 22012KT 9999 OVC024 23/18 Q1020 NOSIG
  • 171230Z AUTO 21012KT 9999 BKN022 OVC029 22/17 Q1020 NOSIG

TAF TAF LFBI
Valide du 17 à 12h jusqu'au 18 à 12h UTC


171100Z 1712/1812 23012G22KT 9999 BKN025
BECMG 1719/1721 23008KT
BECMG 1722/1724 BKN010
TEMPO 1800/1807 BKN005
BECMG 1807/1809 29013KT 4000 -RA BKN010 OVC025
Pas de NOTAMs connus pour ce terrain.



MET'MAP, la Météo Aéronautique d'un coup d'oeil ! - Copyright ORBIFLY Décembre 2007 - Disclaimer

ORBIFLY MET'MAP TEAM :

Programmation & Développement : Alexandra Zaïnal
Conception & Développement : Baudouin d'Aumeries
Co-Programmation & Développement : Marc-Olivier Méhu
Soutien technique & logistique : Manuel Goepfert

Contact : metmap@orbifly.com




SOURCES & CREDITS :

   NOAA